Time;durP1;ratioP1;P1;durP2;ratioP2;P2;SDS_P1;SDS_P2;PMS_P1;PMS_P2;Temp;Humidity;BMP_temperature;BMP_pressure;BME280_temperature;BME280_humidity;BME280_pressure;Samples;Min_cycle;Max_cycle;Signal;HPM_P1;HPM_P2
2024/02/04 00:00:05;;;;;;;22.40;12.63;;;;;;;;;;4993524;28;20568;-65
2024/02/04 00:02:31;;;;;;;21.65;13.05;;;;;;;;;;4991407;28;20046;-67
2024/02/04 00:04:57;;;;;;;25.30;13.52;;;;;;;;;;4985253;28;20030;-67
2024/02/04 00:07:23;;;;;;;23.95;13.65;;;;;;;;;;4994508;28;20107;-67
2024/02/04 00:09:49;;;;;;;23.52;13.32;;;;;;;;;;5003585;28;20090;-66
2024/02/04 00:12:15;;;;;;;25.35;14.05;;;;;;;;;;4995808;28;20032;-66
2024/02/04 00:14:41;;;;;;;25.20;14.45;;;;;;;;;;4991159;28;20060;-67
2024/02/04 00:17:07;;;;;;;22.35;13.02;;;;;;;;;;4993187;28;20052;-67
2024/02/04 00:19:33;;;;;;;28.35;15.05;;;;;;;;;;4990498;28;20084;-67
2024/02/04 00:21:59;;;;;;;23.13;14.05;;;;;;;;;;4994130;28;20120;-66
2024/02/04 00:24:25;;;;;;;24.88;14.70;;;;;;;;;;4998232;28;20065;-65
2024/02/04 00:26:51;;;;;;;18.98;10.75;;;;;;;;;;4992026;28;20030;-66
2024/02/04 00:29:16;;;;;;;19.75;11.48;;;;;;;;;;4993621;28;20084;-66
2024/02/04 00:31:42;;;;;;;24.25;11.13;;;;;;;;;;4990427;28;20165;-67
2024/02/04 00:34:08;;;;;;;17.10;10.23;;;;;;;;;;5003226;28;20029;-67
2024/02/04 00:36:34;;;;;;;12.88;8.85;;;;;;;;;;4991135;28;20037;-67
2024/02/04 00:39:00;;;;;;;15.05;9.45;;;;;;;;;;4999193;28;20022;-67
2024/02/04 00:41:26;;;;;;;12.93;8.60;;;;;;;;;;4992658;28;20053;-66
2024/02/04 00:43:52;;;;;;;11.07;7.40;;;;;;;;;;4999804;28;20497;-66
2024/02/04 00:46:19;;;;;;;10.40;5.60;;;;;;;;;;4991495;28;20447;-67
2024/02/04 00:48:45;;;;;;;9.10;5.10;;;;;;;;;;4999060;28;20484;-67
2024/02/04 00:51:13;;;;;;;6.80;4.32;;;;;;;;;;4990509;28;20037;-66
2024/02/04 00:53:38;;;;;;;6.18;4.43;;;;;;;;;;4992445;28;20034;-65
2024/02/04 00:56:05;;;;;;;7.00;4.38;;;;;;;;;;4992019;28;20506;-66
2024/02/04 00:58:31;;;;;;;7.38;3.17;;;;;;;;;;4997425;28;20018;-66
2024/02/04 01:00:57;;;;;;;4.82;2.83;;;;;;;;;;4994546;28;20035;-65
2024/02/04 01:03:23;;;;;;;3.78;2.83;;;;;;;;;;4993731;28;20026;-66
2024/02/04 01:05:49;;;;;;;3.90;2.33;;;;;;;;;;4988040;28;20121;-66
2024/02/04 01:08:15;;;;;;;2.83;1.92;;;;;;;;;;4987418;28;20527;-66
2024/02/04 01:10:40;;;;;;;3.10;1.75;;;;;;;;;;4990230;28;20095;-66
2024/02/04 01:13:06;;;;;;;4.43;1.90;;;;;;;;;;4993421;28;20042;-67
2024/02/04 01:15:32;;;;;;;2.20;1.60;;;;;;;;;;4993340;28;20031;-66
2024/02/04 01:17:58;;;;;;;1.52;1.42;;;;;;;;;;4992703;28;20039;-66
2024/02/04 01:20:24;;;;;;;2.03;1.52;;;;;;;;;;4995712;28;20030;-66
2024/02/04 01:22:50;;;;;;;3.45;1.50;;;;;;;;;;4993873;28;20022;-65
2024/02/04 01:25:16;;;;;;;1.30;1.15;;;;;;;;;;4996319;28;20058;-66
2024/02/04 01:27:42;;;;;;;2.92;1.40;;;;;;;;;;4990403;28;20026;-65
2024/02/04 01:30:08;;;;;;;2.63;1.20;;;;;;;;;;4997061;28;20061;-65
2024/02/04 01:32:34;;;;;;;1.38;1.20;;;;;;;;;;4994933;28;20026;-66
2024/02/04 01:35:00;;;;;;;1.70;1.30;;;;;;;;;;4993675;28;20558;-66
2024/02/04 01:37:26;;;;;;;1.95;1.30;;;;;;;;;;4992584;28;20049;-66
2024/02/04 01:39:52;;;;;;;1.20;1.00;;;;;;;;;;4997441;28;20077;-67
2024/02/04 01:42:18;;;;;;;1.63;0.88;;;;;;;;;;4994193;28;20031;-67
2024/02/04 01:44:44;;;;;;;1.40;1.30;;;;;;;;;;4997782;28;20041;-66
2024/02/04 01:47:10;;;;;;;2.03;1.13;;;;;;;;;;4995199;28;20035;-67
2024/02/04 01:49:36;;;;;;;5.10;1.20;;;;;;;;;;4995865;28;20034;-67
2024/02/04 01:52:02;;;;;;;1.80;1.30;;;;;;;;;;4994166;28;20058;-66
2024/02/04 01:54:29;;;;;;;1.65;1.38;;;;;;;;;;5000383;28;20038;-66
2024/02/04 01:56:55;;;;;;;2.47;1.42;;;;;;;;;;5000282;28;20027;-67
2024/02/04 01:59:28;;;;;;;2.83;1.67;;;;;;;;;;5004959;28;20057;-67
2024/02/04 02:01:54;;;;;;;2.38;1.95;;;;;;;;;;4997801;28;20026;-66
2024/02/04 02:04:20;;;;;;;2.20;1.40;;;;;;;;;;4999531;28;20428;-67
2024/02/04 02:06:46;;;;;;;3.70;2.40;;;;;;;;;;4989050;28;20038;-65
2024/02/04 02:09:12;;;;;;;3.13;2.10;;;;;;;;;;4995908;28;20451;-66
2024/02/04 02:11:41;;;;;;;3.08;1.90;;;;;;;;;;4990789;28;20041;-65
2024/02/04 02:14:11;;;;;;;4.30;2.00;;;;;;;;;;4991529;28;20120;-67
2024/02/04 02:16:37;;;;;;;3.42;2.22;;;;;;;;;;5001375;28;20077;-67
2024/02/04 02:19:12;;;;;;;3.63;2.53;;;;;;;;;;4999370;28;20022;-66
2024/02/04 02:21:51;;;;;;;3.33;2.47;;;;;;;;;;4999673;28;20357;-67
2024/02/04 02:24:27;;;;;;;4.88;2.33;;;;;;;;;;4996448;28;20036;-67
2024/02/04 02:26:54;;;;;;;3.47;2.60;;;;;;;;;;4999595;28;20026;-65
2024/02/04 02:29:20;;;;;;;4.35;2.60;;;;;;;;;;4998192;28;20416;-67
2024/02/04 02:31:46;;;;;;;3.67;2.90;;;;;;;;;;4999339;28;22050;-67
2024/02/04 02:34:12;;;;;;;3.92;2.50;;;;;;;;;;4999188;28;20599;-66
2024/02/04 02:36:43;;;;;;;5.03;3.30;;;;;;;;;;4997036;28;20104;-67
2024/02/04 02:39:13;;;;;;;7.38;3.50;;;;;;;;;;4992747;28;20480;-67
2024/02/04 02:41:42;;;;;;;8.15;3.78;;;;;;;;;;4996152;28;20050;-66
2024/02/04 02:44:09;;;;;;;9.05;4.22;;;;;;;;;;4998573;28;20522;-66
2024/02/04 02:46:36;;;;;;;6.38;4.63;;;;;;;;;;4985227;28;20508;-65
2024/02/04 02:49:02;;;;;;;9.23;4.82;;;;;;;;;;4990770;28;20054;-66
2024/02/04 02:51:28;;;;;;;9.30;4.78;;;;;;;;;;5000387;28;20646;-66
2024/02/04 02:53:54;;;;;;;9.48;5.63;;;;;;;;;;4994253;28;20381;-66
2024/02/04 02:56:20;;;;;;;9.52;5.20;;;;;;;;;;4997798;28;20543;-67
2024/02/04 02:58:46;;;;;;;9.98;6.55;;;;;;;;;;4994892;28;20026;-66
2024/02/04 03:01:11;;;;;;;8.35;5.50;;;;;;;;;;5002870;28;20033;-67
2024/02/04 03:03:37;;;;;;;10.77;5.45;;;;;;;;;;4993490;28;20444;-67
2024/02/04 03:06:03;;;;;;;9.63;5.30;;;;;;;;;;4997345;28;20567;-66
2024/02/04 03:08:29;;;;;;;10.38;5.38;;;;;;;;;;4994084;28;20492;-66
2024/02/04 03:10:55;;;;;;;10.00;5.15;;;;;;;;;;4999883;28;20022;-65
2024/02/04 03:13:21;;;;;;;8.85;4.20;;;;;;;;;;4992681;28;20076;-63
2024/02/04 03:15:47;;;;;;;9.30;4.70;;;;;;;;;;5005826;28;20037;-67
2024/02/04 03:18:13;;;;;;;9.27;4.95;;;;;;;;;;4991906;28;20439;-66
2024/02/04 03:20:39;;;;;;;15.07;4.65;;;;;;;;;;4996282;28;20039;-65
2024/02/04 03:23:05;;;;;;;10.35;3.33;;;;;;;;;;4992205;28;20092;-66
2024/02/04 03:25:31;;;;;;;9.20;4.82;;;;;;;;;;5000446;28;20109;-66
2024/02/04 03:27:57;;;;;;;8.60;3.75;;;;;;;;;;4996403;28;20451;-66
2024/02/04 03:30:23;;;;;;;7.72;3.88;;;;;;;;;;4999273;28;20513;-66
2024/02/04 03:32:49;;;;;;;8.07;3.80;;;;;;;;;;4994514;28;20034;-65
2024/02/04 03:35:15;;;;;;;10.68;3.55;;;;;;;;;;4995272;28;20081;-67
2024/02/04 03:37:41;;;;;;;11.40;4.32;;;;;;;;;;4995195;28;20025;-65
2024/02/04 03:40:07;;;;;;;9.38;4.20;;;;;;;;;;4993697;28;20036;-65
2024/02/04 03:42:33;;;;;;;12.95;4.55;;;;;;;;;;4993982;28;20022;-65
2024/02/04 03:45:01;;;;;;;9.52;4.28;;;;;;;;;;5001174;28;20035;-66
2024/02/04 03:47:27;;;;;;;11.25;5.40;;;;;;;;;;4998395;28;20065;-67
2024/02/04 03:49:53;;;;;;;11.30;5.53;;;;;;;;;;4991762;28;20527;-67
2024/02/04 03:52:19;;;;;;;9.48;4.45;;;;;;;;;;5003691;28;20463;-65
2024/02/04 03:54:45;;;;;;;11.93;5.55;;;;;;;;;;4993911;28;20564;-65
2024/02/04 03:57:11;;;;;;;9.10;5.20;;;;;;;;;;5003865;28;20026;-65
2024/02/04 03:59:36;;;;;;;11.02;6.20;;;;;;;;;;4995662;28;20030;-66
2024/02/04 04:02:02;;;;;;;16.45;7.25;;;;;;;;;;4998999;28;20030;-66
2024/02/04 04:04:28;;;;;;;17.33;7.70;;;;;;;;;;4994010;28;20044;-65
2024/02/04 04:06:54;;;;;;;12.43;7.18;;;;;;;;;;4992161;28;20030;-66
2024/02/04 04:09:20;;;;;;;14.13;7.13;;;;;;;;;;4992880;28;20034;-65
2024/02/04 04:11:46;;;;;;;10.20;6.03;;;;;;;;;;4988713;28;20089;-66
2024/02/04 04:14:12;;;;;;;15.88;7.85;;;;;;;;;;4989124;28;20030;-66
2024/02/04 04:16:38;;;;;;;13.75;5.95;;;;;;;;;;4986806;28;20026;-65
2024/02/04 04:19:04;;;;;;;9.40;5.57;;;;;;;;;;4988834;28;20100;-67
2024/02/04 04:21:30;;;;;;;14.00;5.22;;;;;;;;;;4977744;28;20070;-66
2024/02/04 04:23:56;;;;;;;13.05;5.70;;;;;;;;;;4982699;28;20490;-66
2024/02/04 04:26:22;;;;;;;11.90;5.35;;;;;;;;;;4978932;28;20026;-66
2024/02/04 04:28:48;;;;;;;14.15;5.63;;;;;;;;;;4983158;28;20464;-65
2024/02/04 04:31:14;;;;;;;12.50;4.60;;;;;;;;;;4982701;28;20543;-65
2024/02/04 04:33:39;;;;;;;10.85;4.93;;;;;;;;;;4982113;28;20058;-64
2024/02/04 04:36:06;;;;;;;6.63;4.10;;;;;;;;;;4980596;28;20485;-66
2024/02/04 04:38:32;;;;;;;13.57;4.53;;;;;;;;;;4978473;28;20560;-65
2024/02/04 04:40:58;;;;;;;7.93;4.00;;;;;;;;;;4979730;28;20101;-66
2024/02/04 04:43:26;;;;;;;9.55;4.65;;;;;;;;;;4978696;28;20019;-67
2024/02/04 04:45:52;;;;;;;9.02;5.18;;;;;;;;;;4987014;28;20079;-67
2024/02/04 04:48:18;;;;;;;7.28;4.60;;;;;;;;;;4978733;28;20034;-65
2024/02/04 04:50:44;;;;;;;11.32;5.82;;;;;;;;;;4983815;28;20073;-67
2024/02/04 04:53:10;;;;;;;11.43;6.22;;;;;;;;;;4981808;28;20051;-66
2024/02/04 04:55:36;;;;;;;11.02;5.60;;;;;;;;;;4987301;28;20034;-67
2024/02/04 04:58:03;;;;;;;14.15;5.60;;;;;;;;;;4993081;28;20105;-66
2024/02/04 05:00:29;;;;;;;11.38;5.40;;;;;;;;;;4991658;28;20034;-66
2024/02/04 05:02:55;;;;;;;13.60;6.57;;;;;;;;;;4989500;28;20149;-67
2024/02/04 05:05:21;;;;;;;10.82;5.43;;;;;;;;;;4990637;28;20026;-66
2024/02/04 05:07:46;;;;;;;14.60;6.28;;;;;;;;;;4993567;28;20026;-67
2024/02/04 05:10:13;;;;;;;9.63;6.07;;;;;;;;;;4991377;28;20064;-63
2024/02/04 05:12:39;;;;;;;10.85;6.50;;;;;;;;;;4986063;28;20039;-67
2024/02/04 05:15:05;;;;;;;12.95;8.13;;;;;;;;;;4991732;28;20392;-67
2024/02/04 05:17:33;;;;;;;14.93;7.63;;;;;;;;;;4989344;28;20373;-64
2024/02/04 05:19:59;;;;;;;12.93;7.28;;;;;;;;;;4990596;28;20022;-66
2024/02/04 05:22:25;;;;;;;17.40;7.85;;;;;;;;;;4998021;28;20027;-65
2024/02/04 05:24:51;;;;;;;13.90;8.20;;;;;;;;;;4989871;28;20575;-65
2024/02/04 05:27:17;;;;;;;15.80;8.57;;;;;;;;;;4991204;28;20492;-66
2024/02/04 05:29:43;;;;;;;14.20;8.35;;;;;;;;;;4991498;28;20022;-66
2024/02/04 05:32:08;;;;;;;20.63;10.45;;;;;;;;;;4991199;28;20492;-66
2024/02/04 05:34:34;;;;;;;16.67;7.82;;;;;;;;;;4990686;28;20022;-67
2024/02/04 05:37:00;;;;;;;13.00;7.10;;;;;;;;;;4991787;28;20030;-66
2024/02/04 05:39:26;;;;;;;14.80;7.50;;;;;;;;;;4991163;28;20072;-66
2024/02/04 05:41:52;;;;;;;15.57;7.63;;;;;;;;;;4991155;28;20023;-66
2024/02/04 05:44:18;;;;;;;12.18;6.43;;;;;;;;;;4989285;28;20034;-66
2024/02/04 05:46:44;;;;;;;11.82;5.45;;;;;;;;;;4992084;28;20076;-67
2024/02/04 05:49:10;;;;;;;12.35;6.00;;;;;;;;;;4989283;28;20488;-65
2024/02/04 05:51:40;;;;;;;10.35;5.68;;;;;;;;;;4991566;28;20392;-66
2024/02/04 05:54:06;;;;;;;8.88;5.47;;;;;;;;;;4989688;28;20022;-65
2024/02/04 05:56:32;;;;;;;9.65;5.18;;;;;;;;;;4991255;28;20027;-66
2024/02/04 05:58:58;;;;;;;7.63;4.90;;;;;;;;;;4984778;28;20042;-66
2024/02/04 06:01:24;;;;;;;7.70;4.07;;;;;;;;;;4982708;28;20050;-67
2024/02/04 06:03:50;;;;;;;7.00;4.57;;;;;;;;;;4989804;28;20018;-67
2024/02/04 06:06:19;;;;;;;7.15;4.18;;;;;;;;;;4992445;28;20518;-67
2024/02/04 06:08:45;;;;;;;7.82;4.43;;;;;;;;;;4989165;28;20037;-65
2024/02/04 06:11:11;;;;;;;9.20;4.47;;;;;;;;;;4992877;28;20022;-67
2024/02/04 06:13:38;;;;;;;7.63;4.35;;;;;;;;;;4992283;28;20468;-65
2024/02/04 06:16:04;;;;;;;7.15;4.55;;;;;;;;;;4989024;28;20033;-66
2024/02/04 06:18:30;;;;;;;6.40;4.03;;;;;;;;;;4989027;28;20174;-66
2024/02/04 06:20:56;;;;;;;8.27;4.40;;;;;;;;;;4990365;28;20022;-66
2024/02/04 06:23:22;;;;;;;8.15;4.45;;;;;;;;;;4997867;28;20030;-66
2024/02/04 06:25:48;;;;;;;8.98;4.75;;;;;;;;;;4992464;28;20030;-65
2024/02/04 06:28:14;;;;;;;7.60;4.20;;;;;;;;;;4994389;28;20044;-66
2024/02/04 06:30:40;;;;;;;10.88;4.78;;;;;;;;;;4992568;28;20104;-66
2024/02/04 06:33:06;;;;;;;9.75;4.70;;;;;;;;;;4987687;28;20038;-66
2024/02/04 06:35:33;;;;;;;9.48;4.32;;;;;;;;;;4989335;28;20019;-66
2024/02/04 06:37:59;;;;;;;7.25;4.05;;;;;;;;;;4989585;28;20030;-65
2024/02/04 06:40:25;;;;;;;9.27;5.07;;;;;;;;;;4992348;28;20026;-66
2024/02/04 06:42:51;;;;;;;10.63;5.57;;;;;;;;;;4988541;28;20042;-65
2024/02/04 06:45:17;;;;;;;10.45;5.35;;;;;;;;;;4988292;28;20057;-65
2024/02/04 06:47:46;;;;;;;9.77;5.35;;;;;;;;;;4989972;28;20058;-67
2024/02/04 06:50:13;;;;;;;8.40;5.43;;;;;;;;;;4995759;28;20112;-66
2024/02/04 06:52:43;;;;;;;9.05;4.25;;;;;;;;;;4986969;28;20504;-67
2024/02/04 06:55:10;;;;;;;10.13;4.78;;;;;;;;;;4985953;28;20444;-66
2024/02/04 06:57:36;;;;;;;8.48;4.75;;;;;;;;;;4995461;28;20388;-64
2024/02/04 07:00:05;;;;;;;5.43;3.40;;;;;;;;;;4996455;28;20501;-66
2024/02/04 07:02:31;;;;;;;8.35;4.25;;;;;;;;;;4992308;28;20473;-67
2024/02/04 07:04:57;;;;;;;8.50;4.18;;;;;;;;;;4994388;28;20026;-66
2024/02/04 07:07:23;;;;;;;14.15;3.45;;;;;;;;;;4996854;28;20399;-66
2024/02/04 07:09:49;;;;;;;4.43;3.17;;;;;;;;;;4997678;28;20515;-66
2024/02/04 07:12:14;;;;;;;7.07;3.17;;;;;;;;;;4995115;28;20445;-67
2024/02/04 07:14:40;;;;;;;4.63;2.50;;;;;;;;;;4996086;28;20026;-66
2024/02/04 07:17:06;;;;;;;3.28;2.60;;;;;;;;;;4994703;28;20395;-66
2024/02/04 07:19:32;;;;;;;3.97;2.83;;;;;;;;;;4994708;28;20098;-67
2024/02/04 07:21:58;;;;;;;5.75;2.50;;;;;;;;;;4995739;28;20030;-67
2024/02/04 07:24:24;;;;;;;4.47;2.58;;;;;;;;;;4988522;28;20026;-67
2024/02/04 07:26:51;;;;;;;4.18;2.60;;;;;;;;;;4984782;28;20400;-66
2024/02/04 07:29:16;;;;;;;5.28;2.67;;;;;;;;;;4989064;28;20104;-66
2024/02/04 07:31:43;;;;;;;4.35;2.38;;;;;;;;;;4989094;28;20057;-66
2024/02/04 07:34:09;;;;;;;3.85;2.33;;;;;;;;;;4991277;28;20038;-66
2024/02/04 07:36:35;;;;;;;3.97;2.45;;;;;;;;;;4992959;28;20022;-67
2024/02/04 07:39:04;;;;;;;2.42;2.17;;;;;;;;;;4990676;28;20500;-67
2024/02/04 07:41:30;;;;;;;3.47;2.63;;;;;;;;;;4988407;28;20054;-67
2024/02/04 07:43:56;;;;;;;7.43;2.50;;;;;;;;;;4994132;28;20084;-64
2024/02/04 07:46:22;;;;;;;3.33;2.38;;;;;;;;;;4990624;28;20398;-67
2024/02/04 07:48:48;;;;;;;2.63;2.20;;;;;;;;;;4991710;28;20041;-66
2024/02/04 07:51:14;;;;;;;2.38;1.88;;;;;;;;;;4992541;28;20034;-66
2024/02/04 07:53:40;;;;;;;2.92;1.90;;;;;;;;;;4985554;28;20086;-67
2024/02/04 07:56:10;;;;;;;4.50;1.83;;;;;;;;;;4991336;28;20030;-66
2024/02/04 07:58:36;;;;;;;4.05;2.10;;;;;;;;;;5001202;28;20551;-68
2024/02/04 08:01:02;;;;;;;4.13;2.03;;;;;;;;;;4994292;28;20843;-66
2024/02/04 08:03:28;;;;;;;1.80;1.50;;;;;;;;;;4992802;28;20034;-66
2024/02/04 08:05:54;;;;;;;7.43;2.25;;;;;;;;;;4994709;28;20113;-67
2024/02/04 08:08:20;;;;;;;2.58;1.90;;;;;;;;;;4997819;28;20058;-66
2024/02/04 08:10:46;;;;;;;2.85;1.83;;;;;;;;;;4993502;28;20031;-66
2024/02/04 08:13:12;;;;;;;1.70;1.50;;;;;;;;;;4993455;28;20036;-66
2024/02/04 08:15:38;;;;;;;4.28;2.15;;;;;;;;;;4980407;28;20112;-66
2024/02/04 08:18:04;;;;;;;4.28;2.47;;;;;;;;;;4990388;28;20518;-64
2024/02/04 08:20:30;;;;;;;1.85;1.55;;;;;;;;;;4990205;28;20027;-65
2024/02/04 08:22:56;;;;;;;4.38;1.80;;;;;;;;;;4986711;28;20055;-67
2024/02/04 08:25:22;;;;;;;2.42;1.92;;;;;;;;;;4993638;28;20038;-67
2024/02/04 08:27:49;;;;;;;3.30;1.85;;;;;;;;;;4989850;28;20053;-67
2024/02/04 08:30:16;;;;;;;2.35;1.70;;;;;;;;;;4987101;28;20030;-66
2024/02/04 08:32:41;;;;;;;2.38;1.70;;;;;;;;;;4989636;28;20048;-63
2024/02/04 08:35:07;;;;;;;2.58;1.30;;;;;;;;;;4983507;28;20027;-64
2024/02/04 08:37:35;;;;;;;2.03;1.55;;;;;;;;;;4987317;28;20771;-66
2024/02/04 08:40:01;;;;;;;3.08;2.13;;;;;;;;;;4988255;28;20040;-66
2024/02/04 08:42:27;;;;;;;4.38;1.92;;;;;;;;;;4982799;28;20049;-65
2024/02/04 08:44:53;;;;;;;4.55;2.30;;;;;;;;;;4987868;28;20053;-65
2024/02/04 08:47:19;;;;;;;5.85;2.53;;;;;;;;;;4984194;28;20030;-65
2024/02/04 08:49:45;;;;;;;6.22;2.20;;;;;;;;;;4986360;28;20030;-67
2024/02/04 08:52:11;;;;;;;8.40;2.50;;;;;;;;;;4981850;28;20113;-65
2024/02/04 08:54:37;;;;;;;5.35;2.78;;;;;;;;;;4986581;28;20059;-67
2024/02/04 08:57:03;;;;;;;5.90;2.75;;;;;;;;;;4981019;28;20045;-66
2024/02/04 08:59:29;;;;;;;6.43;2.50;;;;;;;;;;4995256;28;20070;-61
2024/02/04 09:01:55;;;;;;;4.80;2.60;;;;;;;;;;4982551;28;20512;-59
2024/02/04 09:04:21;;;;;;;3.40;2.00;;;;;;;;;;4984902;28;20038;-59
2024/02/04 09:06:47;;;;;;;8.38;2.40;;;;;;;;;;4988082;28;20121;-60
2024/02/04 09:09:13;;;;;;;2.97;2.25;;;;;;;;;;4986401;28;20026;-60
2024/02/04 09:11:39;;;;;;;7.03;2.60;;;;;;;;;;4988704;28;20033;-60
2024/02/04 09:14:05;;;;;;;4.55;2.28;;;;;;;;;;4989517;28;20556;-60
2024/02/04 09:16:31;;;;;;;3.70;2.33;;;;;;;;;;4989427;28;20480;-59
2024/02/04 09:18:57;;;;;;;3.38;2.00;;;;;;;;;;4987161;28;20027;-59
2024/02/04 09:21:23;;;;;;;2.50;2.10;;;;;;;;;;4986837;28;20026;-59
2024/02/04 09:23:49;;;;;;;2.38;1.50;;;;;;;;;;4985193;28;20117;-60
2024/02/04 09:26:15;;;;;;;2.42;1.70;;;;;;;;;;4988659;28;20038;-60
2024/02/04 09:28:41;;;;;;;7.53;1.88;;;;;;;;;;4983962;28;20030;-60
2024/02/04 09:31:09;;;;;;;2.25;1.40;;;;;;;;;;4987090;28;20442;-63
2024/02/04 09:33:37;;;;;;;4.00;2.40;;;;;;;;;;4988233;28;20101;-60
2024/02/04 09:36:03;;;;;;;2.78;1.52;;;;;;;;;;4988659;28;20081;-60
2024/02/04 09:38:29;;;;;;;2.00;1.52;;;;;;;;;;4987519;28;20461;-61
2024/02/04 09:40:55;;;;;;;2.90;1.40;;;;;;;;;;4987974;28;20084;-60
2024/02/04 09:43:21;;;;;;;2.58;1.63;;;;;;;;;;4986574;28;20061;-60
2024/02/04 09:45:49;;;;;;;3.75;1.48;;;;;;;;;;4987675;28;20108;-60
2024/02/04 09:48:17;;;;;;;3.10;1.30;;;;;;;;;;4984530;28;20061;-60
2024/02/04 09:50:43;;;;;;;2.97;1.67;;;;;;;;;;4989674;28;20038;-61
2024/02/04 09:53:11;;;;;;;5.30;1.73;;;;;;;;;;4986781;28;20393;-59
2024/02/04 09:55:38;;;;;;;2.20;1.60;;;;;;;;;;4985661;28;20501;-60
2024/02/04 09:58:04;;;;;;;3.45;1.88;;;;;;;;;;4984452;28;20018;-60
2024/02/04 10:00:31;;;;;;;3.42;1.80;;;;;;;;;;4985201;28;20161;-61
2024/02/04 10:02:57;;;;;;;3.20;1.92;;;;;;;;;;4990725;28;20045;-59
2024/02/04 10:05:23;;;;;;;4.40;2.20;;;;;;;;;;4987252;28;20629;-60
2024/02/04 10:07:49;;;;;;;2.58;1.50;;;;;;;;;;4986601;28;20041;-61
2024/02/04 10:10:15;;;;;;;2.83;1.25;;;;;;;;;;4993885;28;20037;-58
2024/02/04 10:12:43;;;;;;;6.47;1.70;;;;;;;;;;4991593;28;20048;-61
2024/02/04 10:15:09;;;;;;;4.35;2.05;;;;;;;;;;4994146;28;20113;-60
2024/02/04 10:17:35;;;;;;;2.33;1.40;;;;;;;;;;5000421;28;20365;-58
2024/02/04 10:20:02;;;;;;;4.30;1.35;;;;;;;;;;4995782;28;20116;-59
2024/02/04 10:22:28;;;;;;;4.30;1.35;;;;;;;;;;4998059;28;20567;-58
2024/02/04 10:24:54;;;;;;;3.65;1.50;;;;;;;;;;4999138;28;20102;-60
2024/02/04 10:27:20;;;;;;;3.65;1.48;;;;;;;;;;4997625;28;20042;-60
2024/02/04 10:29:46;;;;;;;3.45;1.27;;;;;;;;;;4999113;28;20033;-58
2024/02/04 10:32:13;;;;;;;3.85;1.55;;;;;;;;;;4988000;28;20031;-59
2024/02/04 10:34:39;;;;;;;2.50;1.48;;;;;;;;;;4992063;28;20102;-59
2024/02/04 10:37:05;;;;;;;2.70;1.92;;;;;;;;;;4990938;28;20511;-59
2024/02/04 10:39:31;;;;;;;3.30;1.73;;;;;;;;;;4993463;28;20023;-59
2024/02/04 10:42:03;;;;;;;2.22;1.65;;;;;;;;;;5000515;28;20439;-60
2024/02/04 10:44:29;;;;;;;2.00;1.70;;;;;;;;;;4998490;28;20031;-60
2024/02/04 10:46:55;;;;;;;2.78;1.80;;;;;;;;;;4993708;28;20576;-57
2024/02/04 10:49:23;;;;;;;3.28;2.03;;;;;;;;;;4993688;28;20467;-58
2024/02/04 10:51:50;;;;;;;2.90;2.00;;;;;;;;;;4998494;28;20389;-58
2024/02/04 10:54:17;;;;;;;8.52;1.88;;;;;;;;;;4993170;28;20484;-60
2024/02/04 10:56:45;;;;;;;4.72;1.55;;;;;;;;;;4989676;28;20018;-60
2024/02/04 10:59:17;;;;;;;2.20;1.48;;;;;;;;;;4993426;28;20033;-58
2024/02/04 11:01:43;;;;;;;8.35;2.17;;;;;;;;;;4995941;28;20046;-59
2024/02/04 11:04:14;;;;;;;1.38;1.17;;;;;;;;;;5004353;28;20439;-58
2024/02/04 11:06:41;;;;;;;3.15;1.30;;;;;;;;;;4994978;28;20429;-58
2024/02/04 11:09:09;;;;;;;4.38;1.38;;;;;;;;;;4993547;28;20046;-57
2024/02/04 11:11:36;;;;;;;4.57;1.30;;;;;;;;;;4998895;28;20022;-59
2024/02/04 11:14:05;;;;;;;2.25;1.10;;;;;;;;;;4995708;28;20037;-56
2024/02/04 11:16:46;;;;;;;1.10;1.00;;;;;;;;;;4990276;28;20015;-59
2024/02/04 11:19:23;;;;;;;1.75;1.17;;;;;;;;;;4995924;28;20057;-59
2024/02/04 11:22:02;;;;;;;1.35;1.15;;;;;;;;;;4990540;28;20040;-61
2024/02/04 11:24:38;;;;;;;3.97;1.27;;;;;;;;;;4984859;28;20105;-60
2024/02/04 11:27:04;;;;;;;1.30;1.20;;;;;;;;;;4999464;28;20034;-57
2024/02/04 11:29:30;;;;;;;1.08;0.98;;;;;;;;;;4994738;28;20041;-57
2024/02/04 11:31:57;;;;;;;1.60;1.30;;;;;;;;;;4991049;28;20074;-59
2024/02/04 11:34:24;;;;;;;2.28;1.20;;;;;;;;;;4987498;28;20073;-60
2024/02/04 11:36:49;;;;;;;2.55;1.52;;;;;;;;;;4992825;28;20045;-60
2024/02/04 11:39:22;;;;;;;1.48;1.23;;;;;;;;;;4999999;28;20485;-57
2024/02/04 11:41:48;;;;;;;1.13;0.90;;;;;;;;;;4994608;28;20022;-57
2024/02/04 11:44:24;;;;;;;1.25;1.15;;;;;;;;;;4989994;28;20034;-59
2024/02/04 11:46:51;;;;;;;2.08;1.02;;;;;;;;;;4991622;28;20378;-60
2024/02/04 11:49:18;;;;;;;1.73;1.52;;;;;;;;;;4997008;28;20050;-60
2024/02/04 11:51:50;;;;;;;2.92;1.40;;;;;;;;;;4990183;28;20045;-59
2024/02/04 11:54:19;;;;;;;1.38;1.10;;;;;;;;;;4993136;28;20085;-59
2024/02/04 11:56:46;;;;;;;5.95;1.65;;;;;;;;;;4996081;28;20106;-59
2024/02/04 11:59:14;;;;;;;2.05;1.30;;;;;;;;;;4990894;28;20136;-59
2024/02/04 12:01:40;;;;;;;3.88;1.52;;;;;;;;;;4990967;28;20014;-59
2024/02/04 12:04:13;;;;;;;3.20;1.90;;;;;;;;;;4999324;28;20030;-58
2024/02/04 12:06:42;;;;;;;3.30;1.63;;;;;;;;;;4991049;28;20050;-59
2024/02/04 12:09:09;;;;;;;2.95;1.80;;;;;;;;;;4991579;28;20050;-60
2024/02/04 12:11:37;;;;;;;2.72;1.10;;;;;;;;;;4989885;28;20065;-60
2024/02/04 12:14:05;;;;;;;2.33;1.55;;;;;;;;;;4986517;28;22466;-59
2024/02/04 12:16:32;;;;;;;5.57;1.50;;;;;;;;;;4989678;28;20018;-61
2024/02/04 12:18:58;;;;;;;2.78;1.33;;;;;;;;;;4987327;28;20031;-60
2024/02/04 12:21:24;;;;;;;5.13;2.20;;;;;;;;;;4986432;28;20037;-60
2024/02/04 12:23:50;;;;;;;10.43;2.40;;;;;;;;;;4989943;28;20045;-59
2024/02/04 12:26:16;;;;;;;3.28;1.52;;;;;;;;;;4989935;28;20647;-60
2024/02/04 12:28:42;;;;;;;2.50;1.50;;;;;;;;;;4976382;28;20035;-59
2024/02/04 12:31:16;;;;;;;3.97;1.67;;;;;;;;;;4983750;28;20050;-59
2024/02/04 12:33:42;;;;;;;3.63;2.03;;;;;;;;;;4986202;28;20026;-60
2024/02/04 12:36:09;;;;;;;2.13;1.90;;;;;;;;;;4989833;28;20488;-60
2024/02/04 12:38:36;;;;;;;2.55;1.83;;;;;;;;;;4991272;28;20030;-60
2024/02/04 12:41:03;;;;;;;2.00;1.45;;;;;;;;;;4989480;28;20932;-60
2024/02/04 12:43:29;;;;;;;2.30;1.50;;;;;;;;;;4985677;28;20105;-60
2024/02/04 12:45:59;;;;;;;1.73;1.20;;;;;;;;;;4990627;28;20527;-60
2024/02/04 12:48:27;;;;;;;1.85;1.30;;;;;;;;;;4989880;28;20396;-60
2024/02/04 12:50:53;;;;;;;1.95;1.15;;;;;;;;;;4985906;28;20505;-59
2024/02/04 12:53:19;;;;;;;2.03;1.25;;;;;;;;;;4991784;28;20034;-60
2024/02/04 12:55:45;;;;;;;3.40;1.30;;;;;;;;;;4993362;28;20032;-59
2024/02/04 12:58:14;;;;;;;2.45;1.35;;;;;;;;;;4992141;28;20023;-58
2024/02/04 13:00:40;;;;;;;3.88;1.58;;;;;;;;;;4991027;28;20357;-60
2024/02/04 13:03:08;;;;;;;1.88;1.77;;;;;;;;;;4991540;28;20034;-59
2024/02/04 13:05:34;;;;;;;2.83;1.55;;;;;;;;;;4988485;28;20026;-60
2024/02/04 13:08:02;;;;;;;1.70;1.60;;;;;;;;;;4990243;28;20033;-59
2024/02/04 13:10:28;;;;;;;1.63;1.52;;;;;;;;;;4992046;28;20401;-59
2024/02/04 13:13:07;;;;;;;1.88;1.55;;;;;;;;;;4991781;28;20038;-59
2024/02/04 13:15:41;;;;;;;2.00;1.80;;;;;;;;;;4990496;28;20112;-60
2024/02/04 13:18:07;;;;;;;3.17;2.10;;;;;;;;;;4998057;28;20105;-60
2024/02/04 13:20:33;;;;;;;2.95;2.28;;;;;;;;;;4988357;28;20110;-57
2024/02/04 13:23:00;;;;;;;3.88;2.30;;;;;;;;;;4992289;28;20101;-58
2024/02/04 13:25:26;;;;;;;2.47;2.28;;;;;;;;;;4990793;28;20029;-59
2024/02/04 13:27:54;;;;;;;6.57;2.80;;;;;;;;;;4993204;28;20030;-60
2024/02/04 13:30:20;;;;;;;5.22;2.55;;;;;;;;;;4990466;28;20043;-59
2024/02/04 13:32:46;;;;;;;6.55;2.47;;;;;;;;;;4995923;28;20026;-60
2024/02/04 13:35:12;;;;;;;3.30;3.00;;;;;;;;;;4991066;28;20034;-60
2024/02/04 13:37:39;;;;;;;5.15;3.08;;;;;;;;;;4996186;28;20030;-60
2024/02/04 13:40:06;;;;;;;3.42;2.38;;;;;;;;;;4989096;28;20035;-60
2024/02/04 13:42:34;;;;;;;4.05;2.40;;;;;;;;;;4995403;28;20029;-59
2024/02/04 13:45:00;;;;;;;2.88;2.45;;;;;;;;;;4988500;28;20511;-60
2024/02/04 13:47:27;;;;;;;3.05;2.38;;;;;;;;;;4992714;28;20117;-60
2024/02/04 13:49:52;;;;;;;4.20;2.03;;;;;;;;;;4989917;28;20030;-58
2024/02/04 13:52:18;;;;;;;5.43;2.13;;;;;;;;;;4993759;28;20121;-60
2024/02/04 13:54:44;;;;;;;2.50;2.10;;;;;;;;;;4993422;28;20105;-57
2024/02/04 13:57:11;;;;;;;3.28;1.98;;;;;;;;;;4990468;28;20042;-57
2024/02/04 13:59:37;;;;;;;6.35;2.22;;;;;;;;;;4990585;28;20531;-57
2024/02/04 14:02:03;;;;;;;2.97;2.40;;;;;;;;;;5001910;28;20510;-59
2024/02/04 14:04:30;;;;;;;3.60;2.42;;;;;;;;;;4989808;28;20041;-58
2024/02/04 14:06:56;;;;;;;4.00;2.45;;;;;;;;;;5004769;28;20032;-59
2024/02/04 14:09:22;;;;;;;5.35;3.10;;;;;;;;;;4993376;28;20042;-58
2024/02/04 14:11:48;;;;;;;6.95;2.63;;;;;;;;;;4994079;28;20046;-60
2024/02/04 14:14:14;;;;;;;8.57;3.53;;;;;;;;;;4990847;28;20033;-60
2024/02/04 14:16:40;;;;;;;4.97;2.20;;;;;;;;;;4992089;28;20033;-60
2024/02/04 14:19:06;;;;;;;3.35;2.13;;;;;;;;;;4992875;28;20048;-60
2024/02/04 14:21:32;;;;;;;3.63;2.83;;;;;;;;;;4987867;28;20026;-60
2024/02/04 14:23:58;;;;;;;2.95;2.30;;;;;;;;;;4991926;28;20033;-58
2024/02/04 14:26:24;;;;;;;3.33;2.55;;;;;;;;;;4999150;28;20041;-58
2024/02/04 14:28:50;;;;;;;4.38;2.33;;;;;;;;;;4986987;28;20131;-60
2024/02/04 14:31:16;;;;;;;2.95;1.88;;;;;;;;;;4995033;28;20472;-59
2024/02/04 14:33:42;;;;;;;2.35;1.42;;;;;;;;;;4987679;28;20062;-56
2024/02/04 14:36:10;;;;;;;1.45;1.35;;;;;;;;;;4983295;28;20034;-60